Terminal Aerodrome Forecast
Issued by NWS

Home | Current Version | Previous Version | Text Only | Print | Product List | Glossary Off
Versions: 1 2 3 4 5 6 7 8 9 10 11 12 13 14 15 16

000
FTUS43 KGRB 230420 AAA
TAFCWA
TAF AMD
KCWA 230420Z 2304/2324 21006KT 6SM -SN SCT020 OVC035
      TEMPO 2304/2308 3SM -FZRASN BKN020
     FM230800 22003KT P6SM BKN040
     FM231200 27006KT P6SM SCT250
      AMD LTD TO CLD VIS AND WIND TIL 231200=

USA.gov is the U.S. government's official web portal to all federal, state and local government web resources and services.